sensor_id;sensor_type;location;lat;lon;timestamp;P1;durP1;ratioP1;P2;durP2;ratioP2
32032;SDS011;31720;52.638;9.216;2023-04-28T00:02:42;3.47;;;1.45;;
32032;SDS011;31720;52.638;9.216;2023-04-28T00:05:44;4.72;;;2.25;;
32032;SDS011;31720;52.638;9.216;2023-04-28T00:08:48;4.15;;;1.83;;
32032;SDS011;31720;52.638;9.216;2023-04-28T00:11:51;4.88;;;1.73;;
32032;SDS011;31720;52.638;9.216;2023-04-28T00:14:52;2.85;;;1.52;;
32032;SDS011;31720;52.638;9.216;2023-04-28T00:17:53;2.20;;;1.42;;
32032;SDS011;31720;52.638;9.216;2023-04-28T00:20:55;3.60;;;1.98;;
32032;SDS011;31720;52.638;9.216;2023-04-28T00:23:56;2.70;;;1.65;;
32032;SDS011;31720;52.638;9.216;2023-04-28T00:26:59;2.33;;;1.77;;
32032;SDS011;31720;52.638;9.216;2023-04-28T00:30:01;2.30;;;1.70;;
32032;SDS011;31720;52.638;9.216;2023-04-28T00:33:03;1.83;;;1.48;;
32032;SDS011;31720;52.638;9.216;2023-04-28T00:36:05;3.33;;;1.75;;
32032;SDS011;31720;52.638;9.216;2023-04-28T00:39:07;2.58;;;1.60;;
32032;SDS011;31720;52.638;9.216;2023-04-28T00:42:10;3.28;;;1.52;;
32032;SDS011;31720;52.638;9.216;2023-04-28T00:45:11;3.10;;;1.90;;
32032;SDS011;31720;52.638;9.216;2023-04-28T00:48:12;2.53;;;1.50;;
32032;SDS011;31720;52.638;9.216;2023-04-28T00:51:14;2.90;;;1.75;;
32032;SDS011;31720;52.638;9.216;2023-04-28T00:54:16;3.85;;;1.70;;
32032;SDS011;31720;52.638;9.216;2023-04-28T00:57:19;2.55;;;1.60;;
32032;SDS011;31720;52.638;9.216;2023-04-28T01:00:20;2.53;;;1.50;;
32032;SDS011;31720;52.638;9.216;2023-04-28T01:03:21;2.42;;;1.60;;
32032;SDS011;31720;52.638;9.216;2023-04-28T01:06:23;5.10;;;2.00;;
32032;SDS011;31720;52.638;9.216;2023-04-28T01:09:24;2.38;;;1.80;;
32032;SDS011;31720;52.638;9.216;2023-04-28T01:12:27;3.65;;;1.70;;
32032;SDS011;31720;52.638;9.216;2023-04-28T01:15:29;2.05;;;1.73;;
32032;SDS011;31720;52.638;9.216;2023-04-28T01:18:30;2.22;;;1.60;;
32032;SDS011;31720;52.638;9.216;2023-04-28T01:21:32;5.72;;;1.92;;
32032;SDS011;31720;52.638;9.216;2023-04-28T01:24:36;4.90;;;1.92;;
32032;SDS011;31720;52.638;9.216;2023-04-28T01:27:37;3.58;;;2.10;;
32032;SDS011;31720;52.638;9.216;2023-04-28T01:30:38;4.68;;;1.60;;
32032;SDS011;31720;52.638;9.216;2023-04-28T01:33:40;3.60;;;1.65;;
32032;SDS011;31720;52.638;9.216;2023-04-28T01:36:41;4.07;;;1.60;;
32032;SDS011;31720;52.638;9.216;2023-04-28T01:39:44;3.60;;;1.80;;
32032;SDS011;31720;52.638;9.216;2023-04-28T01:42:45;3.58;;;1.27;;
32032;SDS011;31720;52.638;9.216;2023-04-28T01:45:46;3.25;;;1.33;;
32032;SDS011;31720;52.638;9.216;2023-04-28T01:48:48;3.20;;;1.63;;
32032;SDS011;31720;52.638;9.216;2023-04-28T01:51:49;5.70;;;1.73;;
32032;SDS011;31720;52.638;9.216;2023-04-28T01:54:52;2.47;;;1.55;;
32032;SDS011;31720;52.638;9.216;2023-04-28T01:57:53;3.00;;;1.55;;
32032;SDS011;31720;52.638;9.216;2023-04-28T02:00:57;2.95;;;1.58;;
32032;SDS011;31720;52.638;9.216;2023-04-28T02:03:58;3.75;;;1.77;;
32032;SDS011;31720;52.638;9.216;2023-04-28T02:07:00;2.90;;;1.60;;
32032;SDS011;31720;52.638;9.216;2023-04-28T02:10:03;4.20;;;1.52;;
32032;SDS011;31720;52.638;9.216;2023-04-28T02:13:05;2.97;;;1.63;;
32032;SDS011;31720;52.638;9.216;2023-04-28T02:16:07;2.45;;;1.58;;
32032;SDS011;31720;52.638;9.216;2023-04-28T02:19:08;5.43;;;1.75;;
32032;SDS011;31720;52.638;9.216;2023-04-28T02:22:09;4.50;;;1.90;;
32032;SDS011;31720;52.638;9.216;2023-04-28T02:25:12;3.45;;;1.52;;
32032;SDS011;31720;52.638;9.216;2023-04-28T02:28:13;2.33;;;1.40;;
32032;SDS011;31720;52.638;9.216;2023-04-28T02:31:15;5.20;;;1.55;;
32032;SDS011;31720;52.638;9.216;2023-04-28T02:34:16;3.45;;;1.45;;
32032;SDS011;31720;52.638;9.216;2023-04-28T02:37:17;5.47;;;1.50;;
32032;SDS011;31720;52.638;9.216;2023-04-28T02:40:20;3.97;;;1.65;;
32032;SDS011;31720;52.638;9.216;2023-04-28T02:43:21;4.90;;;1.67;;
32032;SDS011;31720;52.638;9.216;2023-04-28T02:46:23;4.35;;;1.60;;
32032;SDS011;31720;52.638;9.216;2023-04-28T02:49:24;2.88;;;1.70;;
32032;SDS011;31720;52.638;9.216;2023-04-28T02:52:25;2.88;;;1.85;;
32032;SDS011;31720;52.638;9.216;2023-04-28T02:55:28;2.33;;;1.25;;
32032;SDS011;31720;52.638;9.216;2023-04-28T02:58:29;3.00;;;1.83;;
32032;SDS011;31720;52.638;9.216;2023-04-28T03:01:31;1.45;;;1.27;;
32032;SDS011;31720;52.638;9.216;2023-04-28T03:04:32;2.28;;;1.50;;
32032;SDS011;31720;52.638;9.216;2023-04-28T03:07:33;2.85;;;1.58;;
32032;SDS011;31720;52.638;9.216;2023-04-28T03:10:36;2.83;;;1.58;;
32032;SDS011;31720;52.638;9.216;2023-04-28T03:13:37;4.72;;;1.88;;
32032;SDS011;31720;52.638;9.216;2023-04-28T03:16:39;2.72;;;1.65;;
32032;SDS011;31720;52.638;9.216;2023-04-28T03:19:40;3.13;;;1.77;;
32032;SDS011;31720;52.638;9.216;2023-04-28T03:22:41;4.60;;;1.85;;
32032;SDS011;31720;52.638;9.216;2023-04-28T03:25:44;6.82;;;2.47;;
32032;SDS011;31720;52.638;9.216;2023-04-28T03:28:45;6.20;;;2.10;;
32032;SDS011;31720;52.638;9.216;2023-04-28T03:31:47;2.13;;;1.38;;
32032;SDS011;31720;52.638;9.216;2023-04-28T03:34:48;2.67;;;1.60;;
32032;SDS011;31720;52.638;9.216;2023-04-28T03:37:49;4.53;;;1.92;;
32032;SDS011;31720;52.638;9.216;2023-04-28T03:40:52;5.25;;;1.50;;
32032;SDS011;31720;52.638;9.216;2023-04-28T03:43:53;2.13;;;1.50;;
32032;SDS011;31720;52.638;9.216;2023-04-28T03:46:55;2.47;;;1.52;;
32032;SDS011;31720;52.638;9.216;2023-04-28T03:49:57;3.72;;;1.77;;
32032;SDS011;31720;52.638;9.216;2023-04-28T03:52:58;5.85;;;1.88;;
32032;SDS011;31720;52.638;9.216;2023-04-28T03:56:02;5.43;;;2.17;;
32032;SDS011;31720;52.638;9.216;2023-04-28T03:59:04;8.60;;;2.75;;
32032;SDS011;31720;52.638;9.216;2023-04-28T04:02:05;6.78;;;2.10;;
32032;SDS011;31720;52.638;9.216;2023-04-28T04:05:07;5.68;;;1.80;;
32032;SDS011;31720;52.638;9.216;2023-04-28T04:08:08;6.15;;;2.22;;
32032;SDS011;31720;52.638;9.216;2023-04-28T04:11:11;5.88;;;2.20;;
32032;SDS011;31720;52.638;9.216;2023-04-28T04:14:12;4.05;;;1.95;;
32032;SDS011;31720;52.638;9.216;2023-04-28T04:17:14;7.50;;;1.65;;
32032;SDS011;31720;52.638;9.216;2023-04-28T04:20:15;10.95;;;2.25;;
32032;SDS011;31720;52.638;9.216;2023-04-28T04:23:16;6.80;;;2.30;;
32032;SDS011;31720;52.638;9.216;2023-04-28T04:26:19;4.43;;;2.05;;
32032;SDS011;31720;52.638;9.216;2023-04-28T04:29:21;3.13;;;1.85;;
32032;SDS011;31720;52.638;9.216;2023-04-28T04:32:22;5.15;;;2.08;;
32032;SDS011;31720;52.638;9.216;2023-04-28T04:35:23;4.05;;;1.67;;
32032;SDS011;31720;52.638;9.216;2023-04-28T04:38:25;3.33;;;1.88;;
32032;SDS011;31720;52.638;9.216;2023-04-28T04:41:27;3.42;;;1.75;;
32032;SDS011;31720;52.638;9.216;2023-04-28T04:44:29;2.13;;;1.55;;
32032;SDS011;31720;52.638;9.216;2023-04-28T04:47:30;4.07;;;1.77;;
32032;SDS011;31720;52.638;9.216;2023-04-28T04:50:31;9.40;;;1.92;;
32032;SDS011;31720;52.638;9.216;2023-04-28T04:53:33;2.20;;;1.45;;
32032;SDS011;31720;52.638;9.216;2023-04-28T04:56:36;4.22;;;1.63;;
32032;SDS011;31720;52.638;9.216;2023-04-28T04:59:37;4.15;;;1.85;;
32032;SDS011;31720;52.638;9.216;2023-04-28T05:02:38;4.72;;;2.10;;
32032;SDS011;31720;52.638;9.216;2023-04-28T05:05:40;1.90;;;1.48;;
32032;SDS011;31720;52.638;9.216;2023-04-28T05:08:41;4.72;;;2.00;;
32032;SDS011;31720;52.638;9.216;2023-04-28T05:11:44;3.35;;;1.65;;
32032;SDS011;31720;52.638;9.216;2023-04-28T05:14:46;5.70;;;1.63;;
32032;SDS011;31720;52.638;9.216;2023-04-28T05:17:47;10.88;;;2.28;;
32032;SDS011;31720;52.638;9.216;2023-04-28T05:20:48;2.97;;;2.08;;
32032;SDS011;31720;52.638;9.216;2023-04-28T05:23:50;3.80;;;1.73;;
32032;SDS011;31720;52.638;9.216;2023-04-28T05:26:55;7.95;;;2.30;;
32032;SDS011;31720;52.638;9.216;2023-04-28T05:29:59;2.05;;;1.63;;
32032;SDS011;31720;52.638;9.216;2023-04-28T05:33:00;2.75;;;1.67;;
32032;SDS011;31720;52.638;9.216;2023-04-28T05:36:02;4.65;;;1.65;;
32032;SDS011;31720;52.638;9.216;2023-04-28T05:39:03;9.35;;;3.50;;
32032;SDS011;31720;52.638;9.216;2023-04-28T05:42:06;7.65;;;2.67;;
32032;SDS011;31720;52.638;9.216;2023-04-28T05:45:08;4.03;;;2.05;;
32032;SDS011;31720;52.638;9.216;2023-04-28T05:48:10;5.57;;;2.17;;
32032;SDS011;31720;52.638;9.216;2023-04-28T05:51:11;3.15;;;1.98;;
32032;SDS011;31720;52.638;9.216;2023-04-28T05:54:13;4.07;;;1.77;;
32032;SDS011;31720;52.638;9.216;2023-04-28T05:57:15;8.20;;;2.47;;
32032;SDS011;31720;52.638;9.216;2023-04-28T06:00:17;5.97;;;2.28;;
32032;SDS011;31720;52.638;9.216;2023-04-28T06:03:18;8.20;;;2.25;;
32032;SDS011;31720;52.638;9.216;2023-04-28T06:06:20;3.75;;;2.30;;
32032;SDS011;31720;52.638;9.216;2023-04-28T06:09:21;3.75;;;2.03;;
32032;SDS011;31720;52.638;9.216;2023-04-28T06:12:24;4.78;;;2.55;;
32032;SDS011;31720;52.638;9.216;2023-04-28T06:15:26;3.70;;;1.95;;
32032;SDS011;31720;52.638;9.216;2023-04-28T06:18:28;10.18;;;2.58;;
32032;SDS011;31720;52.638;9.216;2023-04-28T06:21:31;7.90;;;2.55;;
32032;SDS011;31720;52.638;9.216;2023-04-28T06:24:32;2.88;;;1.90;;
32032;SDS011;31720;52.638;9.216;2023-04-28T06:27:35;10.27;;;2.85;;
32032;SDS011;31720;52.638;9.216;2023-04-28T06:30:36;9.82;;;2.20;;
32032;SDS011;31720;52.638;9.216;2023-04-28T06:33:38;5.05;;;2.35;;
32032;SDS011;31720;52.638;9.216;2023-04-28T06:36:39;3.97;;;2.22;;
32032;SDS011;31720;52.638;9.216;2023-04-28T06:39:40;4.65;;;2.38;;
32032;SDS011;31720;52.638;9.216;2023-04-28T06:42:43;6.13;;;2.13;;
32032;SDS011;31720;52.638;9.216;2023-04-28T06:45:45;4.28;;;2.60;;
32032;SDS011;31720;52.638;9.216;2023-04-28T06:48:47;3.47;;;2.33;;
32032;SDS011;31720;52.638;9.216;2023-04-28T06:51:48;7.07;;;2.47;;
32032;SDS011;31720;52.638;9.216;2023-04-28T06:54:50;5.25;;;2.60;;
32032;SDS011;31720;52.638;9.216;2023-04-28T06:57:52;4.25;;;2.40;;
32032;SDS011;31720;52.638;9.216;2023-04-28T07:00:54;3.35;;;2.05;;
32032;SDS011;31720;52.638;9.216;2023-04-28T07:03:55;5.53;;;2.50;;
32032;SDS011;31720;52.638;9.216;2023-04-28T07:06:57;5.57;;;2.40;;
32032;SDS011;31720;52.638;9.216;2023-04-28T07:09:58;5.18;;;2.67;;
32032;SDS011;31720;52.638;9.216;2023-04-28T07:13:01;5.15;;;2.30;;
32032;SDS011;31720;52.638;9.216;2023-04-28T07:16:02;7.88;;;3.55;;
32032;SDS011;31720;52.638;9.216;2023-04-28T07:19:04;4.88;;;2.50;;
32032;SDS011;31720;52.638;9.216;2023-04-28T07:22:06;8.27;;;2.85;;
32032;SDS011;31720;52.638;9.216;2023-04-28T07:25:07;4.85;;;2.80;;
32032;SDS011;31720;52.638;9.216;2023-04-28T07:28:10;6.57;;;3.10;;
32032;SDS011;31720;52.638;9.216;2023-04-28T07:31:11;6.07;;;2.83;;
32032;SDS011;31720;52.638;9.216;2023-04-28T07:34:13;8.07;;;2.67;;
32032;SDS011;31720;52.638;9.216;2023-04-28T07:37:15;5.68;;;2.63;;
32032;SDS011;31720;52.638;9.216;2023-04-28T07:40:16;10.80;;;2.80;;
32032;SDS011;31720;52.638;9.216;2023-04-28T07:43:19;10.45;;;3.13;;
32032;SDS011;31720;52.638;9.216;2023-04-28T07:46:20;4.22;;;2.83;;
32032;SDS011;31720;52.638;9.216;2023-04-28T07:49:22;7.70;;;3.53;;
32032;SDS011;31720;52.638;9.216;2023-04-28T07:52:24;8.15;;;3.15;;
32032;SDS011;31720;52.638;9.216;2023-04-28T07:55:25;4.72;;;2.60;;
32032;SDS011;31720;52.638;9.216;2023-04-28T07:58:28;13.68;;;2.88;;
32032;SDS011;31720;52.638;9.216;2023-04-28T08:01:29;7.95;;;3.00;;
32032;SDS011;31720;52.638;9.216;2023-04-28T08:04:30;6.00;;;2.63;;
32032;SDS011;31720;52.638;9.216;2023-04-28T08:07:33;4.55;;;2.90;;
32032;SDS011;31720;52.638;9.216;2023-04-28T08:10:36;6.78;;;3.05;;
32032;SDS011;31720;52.638;9.216;2023-04-28T08:13:40;4.03;;;2.63;;
32032;SDS011;31720;52.638;9.216;2023-04-28T08:16:42;5.28;;;2.95;;
32032;SDS011;31720;52.638;9.216;2023-04-28T08:19:44;8.90;;;3.20;;
32032;SDS011;31720;52.638;9.216;2023-04-28T08:22:46;9.93;;;3.28;;
32032;SDS011;31720;52.638;9.216;2023-04-28T08:25:48;4.90;;;3.08;;
32032;SDS011;31720;52.638;9.216;2023-04-28T08:28:51;5.88;;;3.28;;
32032;SDS011;31720;52.638;9.216;2023-04-28T08:31:53;6.30;;;3.58;;
32032;SDS011;31720;52.638;9.216;2023-04-28T08:34:54;6.15;;;3.10;;
32032;SDS011;31720;52.638;9.216;2023-04-28T08:37:55;6.15;;;3.50;;
32032;SDS011;31720;52.638;9.216;2023-04-28T08:40:57;7.20;;;3.05;;
32032;SDS011;31720;52.638;9.216;2023-04-28T08:44:00;8.02;;;3.47;;
32032;SDS011;31720;52.638;9.216;2023-04-28T08:47:01;5.00;;;2.92;;
32032;SDS011;31720;52.638;9.216;2023-04-28T08:50:05;8.10;;;3.30;;
32032;SDS011;31720;52.638;9.216;2023-04-28T08:53:07;6.20;;;2.65;;
32032;SDS011;31720;52.638;9.216;2023-04-28T08:56:12;8.18;;;3.50;;
32032;SDS011;31720;52.638;9.216;2023-04-28T08:59:17;6.72;;;3.15;;
32032;SDS011;31720;52.638;9.216;2023-04-28T09:02:19;11.57;;;3.53;;
32032;SDS011;31720;52.638;9.216;2023-04-28T09:05:20;6.55;;;2.97;;
32032;SDS011;31720;52.638;9.216;2023-04-28T09:08:22;6.72;;;3.30;;
32032;SDS011;31720;52.638;9.216;2023-04-28T09:11:23;5.47;;;3.13;;
32032;SDS011;31720;52.638;9.216;2023-04-28T09:14:26;11.07;;;3.58;;
32032;SDS011;31720;52.638;9.216;2023-04-28T09:17:28;15.98;;;3.38;;
32032;SDS011;31720;52.638;9.216;2023-04-28T09:20:31;6.32;;;3.30;;
32032;SDS011;31720;52.638;9.216;2023-04-28T09:23:33;9.48;;;3.58;;
32032;SDS011;31720;52.638;9.216;2023-04-28T09:26:47;8.63;;;3.45;;
32032;SDS011;31720;52.638;9.216;2023-04-28T09:29:52;5.90;;;3.10;;
32032;SDS011;31720;52.638;9.216;2023-04-28T09:33:01;9.95;;;3.13;;
32032;SDS011;31720;52.638;9.216;2023-04-28T09:36:04;7.40;;;3.30;;
32032;SDS011;31720;52.638;9.216;2023-04-28T09:39:06;6.07;;;3.55;;
32032;SDS011;31720;52.638;9.216;2023-04-28T09:42:07;7.72;;;3.60;;
32032;SDS011;31720;52.638;9.216;2023-04-28T09:45:11;9.25;;;3.47;;
32032;SDS011;31720;52.638;9.216;2023-04-28T09:48:13;5.15;;;3.08;;
32032;SDS011;31720;52.638;9.216;2023-04-28T09:51:19;11.82;;;3.80;;
32032;SDS011;31720;52.638;9.216;2023-04-28T09:54:21;5.10;;;2.90;;
32032;SDS011;31720;52.638;9.216;2023-04-28T09:57:23;10.18;;;3.55;;
32032;SDS011;31720;52.638;9.216;2023-04-28T10:00:26;6.75;;;3.60;;
32032;SDS011;31720;52.638;9.216;2023-04-28T10:03:29;8.32;;;3.78;;
32032;SDS011;31720;52.638;9.216;2023-04-28T10:06:31;8.38;;;4.18;;
32032;SDS011;31720;52.638;9.216;2023-04-28T10:09:34;6.32;;;3.83;;
32032;SDS011;31720;52.638;9.216;2023-04-28T10:12:36;6.05;;;3.50;;
32032;SDS011;31720;52.638;9.216;2023-04-28T10:15:39;10.60;;;3.72;;
32032;SDS011;31720;52.638;9.216;2023-04-28T10:18:40;7.38;;;3.15;;
32032;SDS011;31720;52.638;9.216;2023-04-28T10:21:43;4.50;;;3.30;;
32032;SDS011;31720;52.638;9.216;2023-04-28T10:25:00;8.52;;;4.13;;
32032;SDS011;31720;52.638;9.216;2023-04-28T10:28:13;7.10;;;3.85;;
32032;SDS011;31720;52.638;9.216;2023-04-28T10:31:18;11.93;;;3.70;;
32032;SDS011;31720;52.638;9.216;2023-04-28T10:34:21;10.43;;;4.22;;
32032;SDS011;31720;52.638;9.216;2023-04-28T10:40:55;14.95;;;4.90;;
32032;SDS011;31720;52.638;9.216;2023-04-28T10:44:05;7.05;;;4.07;;
32032;SDS011;31720;52.638;9.216;2023-04-28T10:51:21;9.57;;;4.50;;
32032;SDS011;31720;52.638;9.216;2023-04-28T10:54:24;8.25;;;4.25;;
32032;SDS011;31720;52.638;9.216;2023-04-28T10:57:27;9.43;;;4.28;;
32032;SDS011;31720;52.638;9.216;2023-04-28T11:00:28;7.97;;;3.78;;
32032;SDS011;31720;52.638;9.216;2023-04-28T11:03:40;14.93;;;4.15;;
32032;SDS011;31720;52.638;9.216;2023-04-28T11:10:10;7.65;;;3.97;;
32032;SDS011;31720;52.638;9.216;2023-04-28T11:13:24;6.70;;;4.32;;
32032;SDS011;31720;52.638;9.216;2023-04-28T11:16:25;10.70;;;5.00;;
32032;SDS011;31720;52.638;9.216;2023-04-28T11:19:28;9.35;;;3.70;;
32032;SDS011;31720;52.638;9.216;2023-04-28T11:22:32;11.10;;;5.10;;
32032;SDS011;31720;52.638;9.216;2023-04-28T11:28:56;9.50;;;4.25;;
32032;SDS011;31720;52.638;9.216;2023-04-28T11:31:58;9.32;;;3.63;;
32032;SDS011;31720;52.638;9.216;2023-04-28T11:35:01;7.72;;;4.13;;
32032;SDS011;31720;52.638;9.216;2023-04-28T11:38:04;8.07;;;3.97;;
32032;SDS011;31720;52.638;9.216;2023-04-28T11:41:05;8.50;;;3.38;;
32032;SDS011;31720;52.638;9.216;2023-04-28T11:44:10;7.25;;;3.47;;
32032;SDS011;31720;52.638;9.216;2023-04-28T11:47:12;10.73;;;4.32;;
32032;SDS011;31720;52.638;9.216;2023-04-28T11:50:15;8.23;;;3.88;;
32032;SDS011;31720;52.638;9.216;2023-04-28T11:53:17;9.15;;;3.75;;
32032;SDS011;31720;52.638;9.216;2023-04-28T11:56:18;7.90;;;3.80;;
32032;SDS011;31720;52.638;9.216;2023-04-28T11:59:22;8.05;;;4.20;;
32032;SDS011;31720;52.638;9.216;2023-04-28T12:02:25;7.10;;;3.97;;
32032;SDS011;31720;52.638;9.216;2023-04-28T12:05:29;14.50;;;4.20;;
32032;SDS011;31720;52.638;9.216;2023-04-28T12:08:33;12.00;;;4.20;;
32032;SDS011;31720;52.638;9.216;2023-04-28T12:11:34;6.57;;;4.22;;
32032;SDS011;31720;52.638;9.216;2023-04-28T12:14:55;8.13;;;3.97;;
32032;SDS011;31720;52.638;9.216;2023-04-28T12:18:04;9.90;;;3.90;;
32032;SDS011;31720;52.638;9.216;2023-04-28T12:21:20;12.13;;;4.85;;
32032;SDS011;31720;52.638;9.216;2023-04-28T12:24:22;10.80;;;3.95;;
32032;SDS011;31720;52.638;9.216;2023-04-28T12:27:25;7.88;;;3.75;;
32032;SDS011;31720;52.638;9.216;2023-04-28T12:30:28;8.27;;;4.40;;
32032;SDS011;31720;52.638;9.216;2023-04-28T12:33:30;8.73;;;4.07;;
32032;SDS011;31720;52.638;9.216;2023-04-28T12:36:37;14.00;;;4.53;;
32032;SDS011;31720;52.638;9.216;2023-04-28T12:39:39;7.82;;;3.45;;
32032;SDS011;31720;52.638;9.216;2023-04-28T12:42:41;7.03;;;3.70;;
32032;SDS011;31720;52.638;9.216;2023-04-28T12:45:42;7.55;;;4.10;;
32032;SDS011;31720;52.638;9.216;2023-04-28T12:48:44;9.63;;;4.28;;
32032;SDS011;31720;52.638;9.216;2023-04-28T12:51:46;6.80;;;3.63;;
32032;SDS011;31720;52.638;9.216;2023-04-28T12:54:48;8.98;;;3.63;;
32032;SDS011;31720;52.638;9.216;2023-04-28T12:57:49;9.10;;;4.50;;
32032;SDS011;31720;52.638;9.216;2023-04-28T13:00:50;9.35;;;3.70;;
32032;SDS011;31720;52.638;9.216;2023-04-28T13:03:52;9.60;;;4.55;;
32032;SDS011;31720;52.638;9.216;2023-04-28T13:06:54;7.85;;;4.13;;
32032;SDS011;31720;52.638;9.216;2023-04-28T13:09:57;13.65;;;3.70;;
32032;SDS011;31720;52.638;9.216;2023-04-28T13:12:59;8.20;;;3.78;;
32032;SDS011;31720;52.638;9.216;2023-04-28T13:16:00;6.38;;;3.45;;
32032;SDS011;31720;52.638;9.216;2023-04-28T13:19:03;8.85;;;3.80;;
32032;SDS011;31720;52.638;9.216;2023-04-28T13:22:09;6.22;;;3.35;;
32032;SDS011;31720;52.638;9.216;2023-04-28T13:25:11;5.80;;;2.50;;
32032;SDS011;31720;52.638;9.216;2023-04-28T13:28:12;5.20;;;3.05;;
32032;SDS011;31720;52.638;9.216;2023-04-28T13:31:14;7.93;;;2.78;;
32032;SDS011;31720;52.638;9.216;2023-04-28T13:34:16;6.57;;;2.97;;
32032;SDS011;31720;52.638;9.216;2023-04-28T13:37:19;6.78;;;2.70;;
32032;SDS011;31720;52.638;9.216;2023-04-28T13:40:20;4.45;;;3.10;;
32032;SDS011;31720;52.638;9.216;2023-04-28T13:43:22;5.40;;;2.97;;
32032;SDS011;31720;52.638;9.216;2023-04-28T13:46:23;5.68;;;3.15;;
32032;SDS011;31720;52.638;9.216;2023-04-28T13:49:25;8.50;;;3.60;;
32032;SDS011;31720;52.638;9.216;2023-04-28T13:52:28;8.13;;;4.00;;
32032;SDS011;31720;52.638;9.216;2023-04-28T13:55:29;5.88;;;3.08;;
32032;SDS011;31720;52.638;9.216;2023-04-28T13:58:31;8.95;;;3.92;;
32032;SDS011;31720;52.638;9.216;2023-04-28T14:01:33;6.10;;;3.53;;
32032;SDS011;31720;52.638;9.216;2023-04-28T14:04:34;7.20;;;3.00;;
32032;SDS011;31720;52.638;9.216;2023-04-28T14:07:37;7.55;;;3.80;;
32032;SDS011;31720;52.638;9.216;2023-04-28T14:10:38;5.93;;;3.65;;
32032;SDS011;31720;52.638;9.216;2023-04-28T14:13:40;6.97;;;3.15;;
32032;SDS011;31720;52.638;9.216;2023-04-28T14:16:41;6.38;;;3.58;;
32032;SDS011;31720;52.638;9.216;2023-04-28T14:19:43;5.00;;;2.80;;
32032;SDS011;31720;52.638;9.216;2023-04-28T14:22:47;4.75;;;2.97;;
32032;SDS011;31720;52.638;9.216;2023-04-28T14:25:48;7.20;;;4.10;;
32032;SDS011;31720;52.638;9.216;2023-04-28T14:28:50;6.75;;;3.60;;
32032;SDS011;31720;52.638;9.216;2023-04-28T14:31:51;6.63;;;4.05;;
32032;SDS011;31720;52.638;9.216;2023-04-28T14:34:53;7.53;;;3.80;;
32032;SDS011;31720;52.638;9.216;2023-04-28T14:37:55;6.35;;;4.13;;
32032;SDS011;31720;52.638;9.216;2023-04-28T14:40:57;9.02;;;4.38;;
32032;SDS011;31720;52.638;9.216;2023-04-28T14:43:59;8.55;;;4.30;;
32032;SDS011;31720;52.638;9.216;2023-04-28T14:47:00;8.18;;;4.43;;
32032;SDS011;31720;52.638;9.216;2023-04-28T14:50:02;9.80;;;5.15;;
32032;SDS011;31720;52.638;9.216;2023-04-28T14:53:05;11.82;;;4.93;;
32032;SDS011;31720;52.638;9.216;2023-04-28T14:56:07;9.63;;;4.22;;
32032;SDS011;31720;52.638;9.216;2023-04-28T14:59:09;8.15;;;4.72;;
32032;SDS011;31720;52.638;9.216;2023-04-28T15:02:11;13.75;;;5.55;;
32032;SDS011;31720;52.638;9.216;2023-04-28T15:05:13;13.98;;;5.10;;
32032;SDS011;31720;52.638;9.216;2023-04-28T15:08:15;9.55;;;4.57;;
32032;SDS011;31720;52.638;9.216;2023-04-28T15:11:17;10.15;;;4.50;;
32032;SDS011;31720;52.638;9.216;2023-04-28T15:14:18;11.30;;;4.18;;
32032;SDS011;31720;52.638;9.216;2023-04-28T15:17:20;8.20;;;4.43;;
32032;SDS011;31720;52.638;9.216;2023-04-28T15:20:22;7.80;;;4.75;;
32032;SDS011;31720;52.638;9.216;2023-04-28T15:23:24;13.00;;;5.05;;
32032;SDS011;31720;52.638;9.216;2023-04-28T15:26:26;9.80;;;4.80;;
32032;SDS011;31720;52.638;9.216;2023-04-28T15:29:27;9.73;;;4.72;;
32032;SDS011;31720;52.638;9.216;2023-04-28T15:32:28;12.70;;;5.45;;
32032;SDS011;31720;52.638;9.216;2023-04-28T15:35:31;8.23;;;4.15;;
32032;SDS011;31720;52.638;9.216;2023-04-28T15:38:34;12.15;;;5.03;;
32032;SDS011;31720;52.638;9.216;2023-04-28T15:41:35;10.13;;;5.60;;
32032;SDS011;31720;52.638;9.216;2023-04-28T15:44:37;11.65;;;5.28;;
32032;SDS011;31720;52.638;9.216;2023-04-28T15:47:38;10.05;;;5.15;;
32032;SDS011;31720;52.638;9.216;2023-04-28T15:50:41;9.70;;;5.57;;
32032;SDS011;31720;52.638;9.216;2023-04-28T15:53:44;9.75;;;5.53;;
32032;SDS011;31720;52.638;9.216;2023-04-28T15:56:45;8.05;;;4.97;;
32032;SDS011;31720;52.638;9.216;2023-04-28T15:59:47;13.88;;;5.07;;
32032;SDS011;31720;52.638;9.216;2023-04-28T16:02:48;13.27;;;5.78;;
32032;SDS011;31720;52.638;9.216;2023-04-28T16:05:52;11.50;;;5.65;;
32032;SDS011;31720;52.638;9.216;2023-04-28T16:08:55;13.63;;;6.63;;
32032;SDS011;31720;52.638;9.216;2023-04-28T16:11:56;15.32;;;6.63;;
32032;SDS011;31720;52.638;9.216;2023-04-28T16:14:58;24.27;;;7.88;;
32032;SDS011;31720;52.638;9.216;2023-04-28T16:18:00;10.63;;;6.95;;
32032;SDS011;31720;52.638;9.216;2023-04-28T16:21:01;18.98;;;6.85;;
32032;SDS011;31720;52.638;9.216;2023-04-28T16:24:04;13.95;;;7.50;;
32032;SDS011;31720;52.638;9.216;2023-04-28T16:27:07;16.63;;;7.28;;
32032;SDS011;31720;52.638;9.216;2023-04-28T16:30:08;14.43;;;7.30;;
32032;SDS011;31720;52.638;9.216;2023-04-28T16:33:10;20.13;;;7.30;;
32032;SDS011;31720;52.638;9.216;2023-04-28T16:36:12;10.80;;;7.07;;
32032;SDS011;31720;52.638;9.216;2023-04-28T16:39:14;12.68;;;6.30;;
32032;SDS011;31720;52.638;9.216;2023-04-28T16:42:16;13.52;;;7.03;;
32032;SDS011;31720;52.638;9.216;2023-04-28T16:45:19;19.10;;;7.75;;
32032;SDS011;31720;52.638;9.216;2023-04-28T16:48:22;12.27;;;6.80;;
32032;SDS011;31720;52.638;9.216;2023-04-28T16:51:24;15.55;;;7.88;;
32032;SDS011;31720;52.638;9.216;2023-04-28T16:54:28;13.30;;;7.55;;
32032;SDS011;31720;52.638;9.216;2023-04-28T16:57:31;15.13;;;7.40;;
32032;SDS011;31720;52.638;9.216;2023-04-28T17:00:32;16.60;;;7.43;;
32032;SDS011;31720;52.638;9.216;2023-04-28T17:03:33;12.45;;;7.10;;
32032;SDS011;31720;52.638;9.216;2023-04-28T17:06:39;15.60;;;8.77;;
32032;SDS011;31720;52.638;9.216;2023-04-28T17:09:42;13.68;;;6.75;;
32032;SDS011;31720;52.638;9.216;2023-04-28T17:12:44;13.18;;;7.70;;
32032;SDS011;31720;52.638;9.216;2023-04-28T17:15:51;13.35;;;7.70;;
32032;SDS011;31720;52.638;9.216;2023-04-28T17:18:53;16.07;;;7.90;;
32032;SDS011;31720;52.638;9.216;2023-04-28T17:21:55;16.80;;;7.05;;
32032;SDS011;31720;52.638;9.216;2023-04-28T17:24:57;14.68;;;7.05;;
32032;SDS011;31720;52.638;9.216;2023-04-28T17:27:59;14.75;;;7.07;;
32032;SDS011;31720;52.638;9.216;2023-04-28T17:31:00;14.80;;;7.90;;
32032;SDS011;31720;52.638;9.216;2023-04-28T17:34:02;13.68;;;8.50;;
32032;SDS011;31720;52.638;9.216;2023-04-28T17:37:03;13.43;;;7.03;;
32032;SDS011;31720;52.638;9.216;2023-04-28T17:40:07;16.05;;;8.25;;
32032;SDS011;31720;52.638;9.216;2023-04-28T17:43:09;14.77;;;7.93;;
32032;SDS011;31720;52.638;9.216;2023-04-28T17:46:11;14.75;;;8.20;;
32032;SDS011;31720;52.638;9.216;2023-04-28T17:49:13;13.90;;;7.85;;
32032;SDS011;31720;52.638;9.216;2023-04-28T17:52:15;15.20;;;7.47;;
32032;SDS011;31720;52.638;9.216;2023-04-28T17:55:17;14.50;;;8.60;;
32032;SDS011;31720;52.638;9.216;2023-04-28T17:58:19;16.73;;;8.68;;
32032;SDS011;31720;52.638;9.216;2023-04-28T18:01:21;18.67;;;8.70;;
32032;SDS011;31720;52.638;9.216;2023-04-28T18:04:22;15.05;;;7.93;;
32032;SDS011;31720;52.638;9.216;2023-04-28T18:07:24;18.45;;;8.95;;
32032;SDS011;31720;52.638;9.216;2023-04-28T18:10:27;22.50;;;9.43;;
32032;SDS011;31720;52.638;9.216;2023-04-28T18:13:29;17.60;;;9.48;;
32032;SDS011;31720;52.638;9.216;2023-04-28T18:16:30;18.17;;;9.07;;
32032;SDS011;31720;52.638;9.216;2023-04-28T18:19:31;17.15;;;9.30;;
32032;SDS011;31720;52.638;9.216;2023-04-28T18:22:33;12.38;;;8.23;;
32032;SDS011;31720;52.638;9.216;2023-04-28T18:25:36;19.23;;;8.60;;
32032;SDS011;31720;52.638;9.216;2023-04-28T18:28:37;17.75;;;9.07;;
32032;SDS011;31720;52.638;9.216;2023-04-28T18:31:38;15.23;;;9.02;;